Time;durP1;ratioP1;P1;durP2;ratioP2;P2;SDS_P1;SDS_P2;PMS_P1;PMS_P2;Temp;Humidity;BMP_temperature;BMP_pressure;BME280_temperature;BME280_humidity;BME280_pressure;Samples;Min_cycle;Max_cycle;Signal;HPM_P1;HPM_P2
2022/11/13 00:01:21;;;;;;;5.45;2.47;;;15.80;99.90;;;;;;5093576;28;20389;-76
2022/11/13 00:03:48;;;;;;;3.95;2.40;;;15.70;99.90;;;;;;5093872;28;20038;-77
2022/11/13 00:06:19;;;;;;;6.53;2.67;;;15.70;99.90;;;;;;5093717;28;20063;-77
2022/11/13 00:08:45;;;;;;;6.45;3.58;;;15.70;99.90;;;;;;5091957;28;20047;-78
2022/11/13 00:11:14;;;;;;;5.70;2.63;;;15.70;99.90;;;;;;5093614;28;20449;-77
2022/11/13 00:13:41;;;;;;;4.15;2.50;;;15.70;99.90;;;;;;5093690;28;20027;-79
2022/11/13 00:16:11;;;;;;;4.65;2.70;;;15.80;99.90;;;;;;5093588;28;20150;-80
2022/11/13 00:18:39;;;;;;;4.53;2.60;;;15.80;99.90;;;;;;5093397;28;20047;-79
2022/11/13 00:21:10;;;;;;;3.83;2.47;;;15.90;99.90;;;;;;5093567;28;20020;-80
2022/11/13 00:23:49;;;;;;;5.47;2.50;;;15.90;99.90;;;;;;5093329;28;20069;-80
2022/11/13 00:26:18;;;;;;;4.97;2.30;;;15.90;99.90;;;;;;5091767;28;20444;-80
2022/11/13 00:28:44;;;;;;;5.82;2.70;;;15.90;99.90;;;;;;5093360;28;20085;-80
2022/11/13 00:31:13;;;;;;;4.50;2.65;;;15.90;99.90;;;;;;5093313;28;20507;-79
2022/11/13 00:33:39;;;;;;;4.90;2.50;;;16.00;99.90;;;;;;5093096;28;20024;-80
2022/11/13 00:36:16;;;;;;;5.22;2.75;;;16.00;99.90;;;;;;5093242;28;20028;-80
2022/11/13 00:38:43;;;;;;;5.60;3.10;;;16.00;99.90;;;;;;5091949;28;20024;-80
2022/11/13 00:41:09;;;;;;;8.15;2.97;;;16.10;99.90;;;;;;5092022;28;20372;-80
2022/11/13 00:43:35;;;;;;;4.95;2.70;;;16.20;99.90;;;;;;5093168;28;20072;-80
2022/11/13 00:46:01;;;;;;;8.02;2.75;;;16.10;99.90;;;;;;5074572;28;20044;-79
2022/11/13 00:48:27;;;;;;;4.25;2.60;;;16.00;99.90;;;;;;5093487;28;20024;-79
2022/11/13 00:50:53;;;;;;;5.77;2.73;;;15.90;99.90;;;;;;5087239;28;20047;-78
2022/11/13 00:53:20;;;;;;;7.45;2.88;;;15.80;99.90;;;;;;5082490;28;20270;-75
2022/11/13 00:55:46;;;;;;;6.75;2.65;;;15.80;99.90;;;;;;5077083;28;20025;-75
2022/11/13 00:58:13;;;;;;;4.88;2.80;;;15.80;99.90;;;;;;5072922;28;20350;-78
2022/11/13 01:00:44;;;;;;;7.05;3.03;;;15.80;99.90;;;;;;5071321;28;20388;-80
2022/11/13 01:03:11;;;;;;;5.68;2.50;;;15.80;99.90;;;;;;5081274;28;20024;-78
2022/11/13 01:05:38;;;;;;;4.03;2.50;;;15.80;99.90;;;;;;5102786;28;20081;-80
2022/11/13 01:08:05;;;;;;;3.17;2.05;;;15.80;99.90;;;;;;5113985;28;20052;-77
2022/11/13 01:10:34;;;;;;;3.75;2.10;;;15.80;99.90;;;;;;5108956;28;20459;-78
2022/11/13 01:13:00;;;;;;;7.80;2.10;;;15.90;99.90;;;;;;5078428;28;20024;-76
2022/11/13 01:15:26;;;;;;;6.13;2.53;;;16.00;99.90;;;;;;5081312;28;20123;-77
2022/11/13 01:17:53;;;;;;;4.47;2.60;;;16.00;99.90;;;;;;5089473;28;20024;-81
2022/11/13 01:20:21;;;;;;;4.25;2.38;;;15.90;99.90;;;;;;5092609;28;20024;-79
2022/11/13 01:22:47;;;;;;;3.90;2.45;;;15.90;99.90;;;;;;5090731;28;20071;-79
2022/11/13 01:25:13;;;;;;;4.43;2.42;;;15.90;99.90;;;;;;5079507;28;20032;-80
2022/11/13 01:27:40;;;;;;;5.65;2.63;;;15.90;99.90;;;;;;5080889;28;20453;-79
2022/11/13 01:30:07;;;;;;;3.30;1.98;;;16.00;99.90;;;;;;5080773;28;20028;-79
2022/11/13 01:32:33;;;;;;;;;;;15.90;99.90;;;;;;5089663;28;20063;-78
2022/11/13 01:34:59;;;;;;;4.25;1.95;;;15.90;99.90;;;;;;5092495;28;20256;-80
2022/11/13 01:37:27;;;;;;;3.50;1.80;;;15.90;99.90;;;;;;5092255;28;20092;-80
2022/11/13 01:39:54;;;;;;;4.03;2.03;;;15.90;99.90;;;;;;5092488;28;20025;-81
2022/11/13 01:42:20;;;;;;;3.58;1.90;;;15.90;99.90;;;;;;5092426;28;20461;-80
2022/11/13 01:44:47;;;;;;;2.83;1.77;;;15.90;99.90;;;;;;5092617;28;20031;-80
2022/11/13 01:47:15;;;;;;;3.35;1.83;;;15.90;99.90;;;;;;5092514;28;20316;-79
2022/11/13 01:49:43;;;;;;;3.20;1.70;;;16.00;99.90;;;;;;5092262;28;20044;-79
2022/11/13 01:52:16;;;;;;;3.45;1.80;;;15.90;99.90;;;;;;5090606;28;20435;-79
2022/11/13 01:55:03;;;;;;;3.30;1.95;;;15.90;99.90;;;;;;5092070;28;20028;-78
2022/11/13 01:57:30;;;;;;;4.15;2.40;;;15.90;99.90;;;;;;5092058;28;20364;-79
2022/11/13 02:00:01;;;;;;;4.72;2.45;;;15.90;99.90;;;;;;5090551;28;20024;-79
2022/11/13 02:02:27;;;;;;;5.03;2.15;;;15.80;99.90;;;;;;5092418;28;20024;-78
2022/11/13 02:04:53;;;;;;;;;;;15.80;99.90;;;;;;5092152;28;20032;-79
2022/11/13 02:07:22;;;;;;;3.78;2.40;;;15.70;99.90;;;;;;5092306;28;20220;-79
2022/11/13 02:09:51;;;;;;;4.43;2.60;;;15.60;99.90;;;;;;5091571;28;20028;-79
2022/11/13 02:12:38;;;;;;;4.00;2.40;;;15.60;99.90;;;;;;5091889;28;20020;-78
2022/11/13 02:15:06;;;;;;;6.28;2.33;;;15.60;99.90;;;;;;5092058;28;20483;-78
2022/11/13 02:17:49;;;;;;;4.95;2.90;;;15.70;99.90;;;;;;5090146;28;20115;-79
2022/11/13 02:20:19;;;;;;;6.43;2.50;;;15.60;99.90;;;;;;5091453;28;20062;-79
2022/11/13 02:23:10;;;;;;;7.15;3.10;;;15.60;99.90;;;;;;5091863;28;20046;-79
2022/11/13 02:25:40;;;;;;;5.75;2.85;;;15.60;99.90;;;;;;5091819;28;20128;-79
2022/11/13 02:28:08;;;;;;;6.47;3.08;;;15.50;99.90;;;;;;5091268;28;20059;-81
2022/11/13 02:30:35;;;;;;;5.88;2.67;;;15.50;99.90;;;;;;5091289;28;20036;-79
2022/11/13 02:33:25;;;;;;;4.57;2.53;;;15.50;99.90;;;;;;5090175;28;20036;-79
2022/11/13 02:35:53;;;;;;;5.70;2.92;;;15.50;99.90;;;;;;5084504;28;20044;-79
2022/11/13 02:38:19;;;;;;;4.03;2.58;;;15.50;99.90;;;;;;5090539;28;20322;-75
2022/11/13 02:40:46;;;;;;;4.60;2.53;;;15.40;99.90;;;;;;5091754;28;20043;-79
2022/11/13 02:43:13;;;;;;;4.45;2.40;;;15.50;99.90;;;;;;5104020;28;20019;-80
2022/11/13 02:45:39;;;;;;;4.45;2.83;;;15.50;99.90;;;;;;5112157;28;20460;-81
2022/11/13 02:48:06;;;;;;;3.97;2.30;;;15.50;99.90;;;;;;5112050;28;20026;-79
2022/11/13 02:50:35;;;;;;;3.53;2.15;;;15.60;99.90;;;;;;5091796;28;20044;-79
2022/11/13 02:53:01;;;;;;;5.57;2.42;;;15.60;99.90;;;;;;5091214;28;20519;-78
2022/11/13 02:55:27;;;;;;;3.63;2.20;;;15.60;99.90;;;;;;5091359;28;20484;-79
2022/11/13 02:57:53;;;;;;;4.10;2.33;;;15.60;99.90;;;;;;5091279;28;20024;-79
2022/11/13 03:00:21;;;;;;;4.63;2.40;;;15.60;99.90;;;;;;5091499;28;20089;-80
2022/11/13 03:02:47;;;;;;;5.35;2.30;;;15.70;99.90;;;;;;5094258;28;20748;-79
2022/11/13 03:05:13;;;;;;;4.65;2.20;;;15.70;99.90;;;;;;5096079;28;20024;-79
2022/11/13 03:07:42;;;;;;;4.07;2.35;;;15.70;99.90;;;;;;5095750;28;20020;-79
2022/11/13 03:10:10;;;;;;;4.78;2.63;;;15.70;99.90;;;;;;5094720;28;20082;-79
2022/11/13 03:12:37;;;;;;;4.07;2.30;;;15.60;99.90;;;;;;5095451;28;20055;-80
2022/11/13 03:15:04;;;;;;;4.70;2.10;;;15.70;99.90;;;;;;5093898;28;20020;-80
2022/11/13 03:17:32;;;;;;;5.78;2.50;;;15.70;99.90;;;;;;5095198;28;20024;-79
2022/11/13 03:19:58;;;;;;;4.30;2.40;;;15.60;99.90;;;;;;5095557;28;20325;-79
2022/11/13 03:22:25;;;;;;;4.75;2.60;;;15.60;99.90;;;;;;5094198;28;20070;-79
2022/11/13 03:24:51;;;;;;;4.82;2.40;;;15.70;99.90;;;;;;5093924;28;20032;-79
2022/11/13 03:27:20;;;;;;;4.40;2.35;;;15.60;99.90;;;;;;5099774;28;20020;-80
2022/11/13 03:29:48;;;;;;;7.75;2.60;;;15.60;99.90;;;;;;5095077;28;20109;-79
2022/11/13 03:32:14;;;;;;;3.63;2.22;;;15.60;99.90;;;;;;5094165;28;20115;-80
2022/11/13 03:34:40;;;;;;;3.33;2.20;;;15.60;99.90;;;;;;5094683;28;20028;-79
2022/11/13 03:37:06;;;;;;;8.30;2.60;;;15.60;99.90;;;;;;5102010;28;20024;-79
2022/11/13 03:39:32;;;;;;;7.67;2.80;;;15.60;99.90;;;;;;5115522;28;20260;-78
2022/11/13 03:41:58;;;;;;;4.47;2.80;;;15.60;99.90;;;;;;5115098;28;20270;-79
2022/11/13 03:44:25;;;;;;;4.77;3.00;;;15.60;99.90;;;;;;5115120;28;20056;-79
2022/11/13 03:46:51;;;;;;;;;;;15.50;99.90;;;;;;5115455;27;20308;-78
2022/11/13 03:49:18;;;;;;;3.90;2.83;;;15.50;99.90;;;;;;5115236;28;19953;-79
2022/11/13 03:51:43;;;;;;;;;;;15.40;99.90;;;;;;5113174;28;20401;-79
2022/11/13 03:54:10;;;;;;;5.15;2.70;;;15.30;99.90;;;;;;5115040;28;19998;-79
2022/11/13 03:56:36;;;;;;;5.15;2.60;;;15.30;99.90;;;;;;5114813;28;20058;-78
2022/11/13 03:59:03;;;;;;;4.73;2.80;;;15.30;99.90;;;;;;5114933;28;20031;-79
2022/11/13 04:01:29;;;;;;;7.07;3.07;;;15.40;99.90;;;;;;5113189;28;20262;-79
2022/11/13 04:04:05;;;;;;;6.33;3.17;;;15.40;99.90;;;;;;5112133;28;20051;-79
2022/11/13 04:06:31;;;;;;;5.32;3.10;;;15.30;99.90;;;;;;5114455;28;20864;-79
2022/11/13 04:08:57;;;;;;;6.57;2.65;;;15.20;99.90;;;;;;5114562;28;20020;-78
2022/11/13 04:11:45;;;;;;;6.30;3.03;;;15.20;99.90;;;;;;5114244;28;20093;-79
2022/11/13 04:14:13;;;;;;;5.35;2.80;;;15.20;99.90;;;;;;5113895;28;20091;-79
2022/11/13 04:16:38;;;;;;;;;;;15.20;99.90;;;;;;5114861;28;20475;-79
2022/11/13 04:19:05;;;;;;;3.90;2.60;;;15.10;99.90;;;;;;5114305;28;19964;-78
2022/11/13 04:21:31;;;;;;;4.90;2.63;;;15.20;99.90;;;;;;5114560;28;20065;-78
2022/11/13 04:23:57;;;;;;;4.45;3.00;;;15.10;99.90;;;;;;5114442;28;20121;-79
2022/11/13 04:26:25;;;;;;;3.77;2.77;;;15.20;99.90;;;;;;5114294;28;20364;-78
2022/11/13 04:29:16;;;;;;;5.47;2.97;;;15.20;99.90;;;;;;5114045;28;20266;-79
2022/11/13 04:31:42;;;;;;;5.95;2.60;;;15.10;99.90;;;;;;5114313;28;20498;-79
2022/11/13 04:34:09;;;;;;;;;;;15.10;99.90;;;;;;5114291;28;20038;-79
2022/11/13 04:36:36;;;;;;;6.88;2.58;;;15.10;99.90;;;;;;5114124;28;20337;-78
2022/11/13 04:39:03;;;;;;;5.07;2.90;;;15.10;99.90;;;;;;5113915;28;20073;-78
2022/11/13 04:44:13;;;;;;;5.13;3.30;;;15.10;99.90;;;;;;5114306;28;20412;-78
2022/11/13 04:46:40;;;;;;;4.05;2.72;;;15.00;99.90;;;;;;5113626;28;20028;-79
2022/11/13 04:49:06;;;;;;;4.73;3.20;;;15.00;99.90;;;;;;5113912;28;20368;-79
2022/11/13 04:51:32;;;;;;;5.40;3.63;;;15.00;99.90;;;;;;5113609;28;20509;-79
2022/11/13 04:53:58;;;;;;;4.50;3.30;;;15.00;99.90;;;;;;5114231;28;20404;-78
2022/11/13 04:56:24;;;;;;;3.97;2.93;;;15.00;99.90;;;;;;5113952;28;20470;-77
2022/11/13 04:58:52;;;;;;;6.30;3.50;;;15.00;99.90;;;;;;5113478;28;20035;-79
2022/11/13 05:01:22;;;;;;;4.80;3.40;;;14.90;99.90;;;;;;5108657;28;20110;-79
2022/11/13 05:03:48;;;;;;;5.03;3.35;;;14.90;99.90;;;;;;5083651;28;20424;-78
2022/11/13 05:06:17;;;;;;;5.13;3.03;;;14.90;99.90;;;;;;5083479;28;20031;-79
2022/11/13 05:08:46;;;;;;;5.28;3.65;;;14.90;99.90;;;;;;5083576;28;20065;-77
2022/11/13 05:11:12;;;;;;;4.78;3.50;;;14.90;99.90;;;;;;5081798;28;20111;-78
2022/11/13 05:13:39;;;;;;;7.20;3.95;;;14.90;99.90;;;;;;5082784;28;20024;-76
2022/11/13 05:16:10;;;;;;;7.63;4.27;;;14.80;99.90;;;;;;5081113;28;20056;-80
2022/11/13 05:18:37;;;;;;;5.07;3.90;;;14.80;99.90;;;;;;5090012;28;20024;-74
2022/11/13 05:21:05;;;;;;;6.68;4.38;;;14.80;99.90;;;;;;5092836;28;20039;-79
2022/11/13 05:23:49;;;;;;;5.72;4.28;;;14.80;99.90;;;;;;5092606;28;20043;-79
2022/11/13 05:26:16;;;;;;;7.47;4.68;;;14.80;99.90;;;;;;5090782;28;20046;-79
2022/11/13 05:28:44;;;;;;;6.18;4.47;;;14.70;99.90;;;;;;5092670;28;20028;-79
2022/11/13 05:31:14;;;;;;;5.95;4.20;;;14.70;99.90;;;;;;5092737;28;20034;-79
2022/11/13 05:33:42;;;;;;;11.40;4.55;;;14.80;99.90;;;;;;5092547;28;20069;-75
2022/11/13 05:36:14;;;;;;;5.90;4.38;;;14.80;99.90;;;;;;5092452;28;20332;-79
2022/11/13 05:38:40;;;;;;;8.13;4.00;;;14.80;99.90;;;;;;5092705;28;20047;-79
2022/11/13 05:41:12;;;;;;;7.07;4.38;;;14.90;99.90;;;;;;5092240;28;20499;-79
2022/11/13 05:43:40;;;;;;;5.32;4.30;;;14.90;99.90;;;;;;5092509;28;20024;-79
2022/11/13 05:46:10;;;;;;;6.75;4.57;;;14.80;99.90;;;;;;5092331;28;20472;-79
2022/11/13 05:48:37;;;;;;;5.50;4.10;;;14.80;99.90;;;;;;5092508;28;20032;-79
2022/11/13 05:51:06;;;;;;;7.20;3.53;;;14.80;99.90;;;;;;5092493;28;20047;-81
2022/11/13 05:53:35;;;;;;;5.63;4.15;;;14.80;99.90;;;;;;5091896;28;20048;-78
2022/11/13 05:56:05;;;;;;;5.78;4.15;;;14.80;99.90;;;;;;5091836;28;20105;-79
2022/11/13 05:58:32;;;;;;;5.32;4.18;;;14.90;99.90;;;;;;5092025;28;20036;-79
2022/11/13 06:01:26;;;;;;;5.50;4.03;;;14.90;99.90;;;;;;5092396;28;20020;-79
2022/11/13 06:03:59;;;;;;;5.38;4.32;;;14.90;99.90;;;;;;5091394;28;20611;-79
2022/11/13 06:06:38;;;;;;;6.25;4.25;;;14.90;99.90;;;;;;5091196;28;20412;-79
2022/11/13 06:09:05;;;;;;;6.35;4.32;;;14.90;99.90;;;;;;5091232;28;20023;-78
2022/11/13 06:11:32;;;;;;;6.20;4.10;;;14.90;99.90;;;;;;5079568;28;20048;-76
2022/11/13 06:13:59;;;;;;;5.13;4.13;;;15.00;99.90;;;;;;5079924;28;20020;-78
2022/11/13 06:16:29;;;;;;;5.95;4.07;;;15.00;99.90;;;;;;5079402;28;20028;-78
2022/11/13 06:18:57;;;;;;;6.45;3.95;;;15.10;99.90;;;;;;5071130;28;20020;-78
2022/11/13 06:21:26;;;;;;;6.15;4.25;;;15.20;99.90;;;;;;5071491;28;20056;-78
2022/11/13 06:23:52;;;;;;;5.25;4.13;;;15.30;99.90;;;;;;5071402;28;20141;-76
2022/11/13 06:26:28;;;;;;;5.53;4.10;;;15.50;99.90;;;;;;5071484;28;20108;-77
2022/11/13 06:28:56;;;;;;;5.93;3.33;;;15.90;99.90;;;;;;5071086;28;20043;-75
2022/11/13 06:31:30;;;;;;;3.90;3.10;;;16.70;99.90;;;;;;5070827;28;20460;-76
2022/11/13 06:33:59;;;;;;;5.18;3.08;;;17.50;99.90;;;;;;5071368;28;20017;-75
2022/11/13 06:36:28;;;;;;;3.97;2.92;;;18.00;99.90;;;;;;5070122;28;20104;-76
2022/11/13 06:38:55;;;;;;;4.38;2.97;;;18.20;99.90;;;;;;5076347;28;20501;-76
2022/11/13 06:41:31;;;;;;;5.15;2.75;;;18.50;99.90;;;;;;5091968;28;20123;-75
2022/11/13 06:43:58;;;;;;;4.95;3.00;;;18.30;99.90;;;;;;5091419;28;20024;-76
2022/11/13 06:46:27;;;;;;;4.30;3.00;;;18.00;99.90;;;;;;5089164;28;20020;-75
2022/11/13 06:48:54;;;;;;;4.72;3.08;;;17.70;99.90;;;;;;5089052;28;20078;-75
2022/11/13 06:51:28;;;;;;;3.97;3.00;;;17.60;99.90;;;;;;5090834;28;20118;-76
2022/11/13 06:53:56;;;;;;;4.20;3.17;;;17.10;99.90;;;;;;5090357;28;20063;-75
2022/11/13 06:56:23;;;;;;;5.70;3.03;;;16.80;99.90;;;;;;5090672;28;20036;-75
2022/11/13 06:58:49;;;;;;;6.18;3.45;;;16.60;99.90;;;;;;5090797;28;20382;-75
2022/11/13 07:01:21;;;;;;;5.88;3.38;;;16.70;99.90;;;;;;5090618;28;20016;-74
2022/11/13 07:03:47;;;;;;;5.15;3.30;;;16.70;99.90;;;;;;5090357;28;20052;-73
2022/11/13 07:06:15;;;;;;;4.82;3.13;;;16.80;99.90;;;;;;5090849;28;20409;-78
2022/11/13 07:08:43;;;;;;;5.15;3.00;;;17.00;99.90;;;;;;5090750;28;20031;-75
2022/11/13 07:11:11;;;;;;;4.38;2.75;;;17.60;99.90;;;;;;5090491;28;20099;-77
2022/11/13 07:13:44;;;;;;;4.03;2.75;;;18.40;99.90;;;;;;5089089;28;20040;-77
2022/11/13 07:16:11;;;;;;;4.03;2.35;;;19.30;99.90;;;;;;5090532;28;20487;-77
2022/11/13 07:18:40;;;;;;;4.78;2.75;;;19.60;99.90;;;;;;5091742;28;20025;-75
2022/11/13 07:21:09;;;;;;;4.57;2.67;;;19.60;99.90;;;;;;5091536;28;20039;-76
2022/11/13 07:23:42;;;;;;;6.35;2.53;;;19.50;99.90;;;;;;5090944;28;20073;-76
2022/11/13 07:26:12;;;;;;;4.13;2.40;;;19.60;99.90;;;;;;5101817;28;20070;-79
2022/11/13 07:28:38;;;;;;;5.72;3.10;;;19.70;99.90;;;;;;5110079;28;20091;-76
2022/11/13 07:31:05;;;;;;;5.05;3.00;;;19.10;99.90;;;;;;5111839;28;20044;-75
2022/11/13 07:33:32;;;;;;;5.05;3.40;;;18.90;99.90;;;;;;5111016;28;20027;-76
2022/11/13 07:35:59;;;;;;;5.70;3.40;;;18.50;99.90;;;;;;5111712;28;20027;-77
2022/11/13 07:38:28;;;;;;;9.50;3.92;;;18.20;99.90;;;;;;5111877;28;20114;-83
2022/11/13 07:40:56;;;;;;;4.50;2.97;;;18.00;99.90;;;;;;5111338;28;20486;-78
2022/11/13 07:43:47;;;;;;;4.18;2.97;;;17.60;99.90;;;;;;5109825;28;20032;-77
2022/11/13 07:46:13;;;;;;;4.95;3.03;;;17.40;99.90;;;;;;5111339;28;20124;-76
2022/11/13 07:48:41;;;;;;;3.90;2.38;;;17.20;99.90;;;;;;5111671;28;20032;-77
2022/11/13 07:51:07;;;;;;;4.40;2.30;;;17.10;99.90;;;;;;5109396;28;20035;-77
2022/11/13 07:53:34;;;;;;;5.72;2.72;;;17.00;99.90;;;;;;5072825;28;20469;-77
2022/11/13 07:56:02;;;;;;;4.93;2.70;;;17.00;99.90;;;;;;5075986;28;20074;-77
2022/11/13 07:58:29;;;;;;;5.57;3.03;;;16.90;99.90;;;;;;5074589;28;20024;-77
2022/11/13 08:01:00;;;;;;;;;;;16.80;99.90;;;;;;5075023;28;20024;-72
2022/11/13 08:03:26;;;;;;;4.80;2.80;;;16.70;99.90;;;;;;5074133;28;19904;-81
2022/11/13 08:05:58;;;;;;;6.63;2.97;;;16.60;99.90;;;;;;5074027;28;20025;-79
2022/11/13 08:08:25;;;;;;;3.92;2.55;;;16.70;99.90;;;;;;5073833;28;20093;-79
2022/11/13 08:10:51;;;;;;;5.38;2.60;;;16.90;99.90;;;;;;5073810;28;20033;-81
2022/11/13 08:13:17;;;;;;;4.85;2.70;;;17.10;99.90;;;;;;5072608;28;20028;-79
2022/11/13 08:15:43;;;;;;;4.37;2.90;;;17.10;99.90;;;;;;5072160;28;20047;-79
2022/11/13 08:18:12;;;;;;;4.50;2.73;;;17.30;99.90;;;;;;5073880;28;20263;-79
2022/11/13 08:20:41;;;;;;;6.63;3.00;;;17.40;99.90;;;;;;5074027;28;20330;-80
2022/11/13 08:23:07;;;;;;;4.00;2.05;;;17.70;99.90;;;;;;5073730;28;20020;-79
2022/11/13 08:25:35;;;;;;;7.72;2.63;;;17.80;99.90;;;;;;5073449;28;20040;-79
2022/11/13 08:28:02;;;;;;;5.22;2.40;;;18.00;99.90;;;;;;5072072;28;20112;-79
2022/11/13 08:30:28;;;;;;;4.63;2.90;;;18.20;99.90;;;;;;5073305;28;20469;-80
2022/11/13 08:32:55;;;;;;;4.10;2.40;;;18.30;99.90;;;;;;5073589;28;20197;-78
2022/11/13 08:35:22;;;;;;;4.80;2.40;;;18.30;99.90;;;;;;5073127;28;20016;-78
2022/11/13 08:37:51;;;;;;;9.57;2.33;;;18.30;99.90;;;;;;5073132;28;20028;-79
2022/11/13 08:40:17;;;;;;;7.97;3.10;;;18.20;99.90;;;;;;5073420;28;20013;-78
2022/11/13 08:42:43;;;;;;;;;;;18.00;99.90;;;;;;5073375;28;20027;-78
2022/11/13 08:45:10;;;;;;;4.85;2.55;;;17.90;99.90;;;;;;5073006;28;20279;-78
2022/11/13 08:47:38;;;;;;;;;;;17.90;99.90;;;;;;5073262;28;20048;-79
2022/11/13 08:50:06;;;;;;;5.15;2.60;;;17.80;99.90;;;;;;5072781;28;19908;-80
2022/11/13 08:52:33;;;;;;;4.47;2.47;;;17.90;99.90;;;;;;5072403;28;20124;-79
2022/11/13 08:55:00;;;;;;;;;;;18.00;99.90;;;;;;5073223;28;20077;-80
2022/11/13 08:57:26;;;;;;;6.03;2.40;;;18.30;99.90;;;;;;5072422;28;19904;-78
2022/11/13 08:59:54;;;;;;;4.47;2.65;;;18.40;99.90;;;;;;5070023;28;20380;-78
2022/11/13 09:02:21;;;;;;;6.63;2.58;;;18.60;99.90;;;;;;5072631;28;20025;-78
2022/11/13 09:04:47;;;;;;;4.40;2.60;;;18.80;99.90;;;;;;5072608;28;20020;-78
2022/11/13 09:07:16;;;;;;;6.55;2.47;;;19.00;99.90;;;;;;5072057;28;20471;-78
2022/11/13 09:09:42;;;;;;;5.40;2.47;;;19.20;99.90;;;;;;5070719;28;20046;-76
2022/11/13 09:12:09;;;;;;;3.63;2.15;;;19.40;99.90;;;;;;5072332;28;20024;-77
2022/11/13 09:14:38;;;;;;;4.15;2.22;;;19.50;99.90;;;;;;5072179;28;20028;-77
2022/11/13 09:17:04;;;;;;;7.13;2.22;;;19.70;99.90;;;;;;5072351;28;20415;-77
2022/11/13 09:19:30;;;;;;;7.05;2.40;;;19.90;99.90;;;;;;5072091;28;20024;-77
2022/11/13 09:21:56;;;;;;;5.72;2.30;;;20.10;99.90;;;;;;5073081;28;20037;-79
2022/11/13 09:24:22;;;;;;;4.50;2.28;;;20.20;99.90;;;;;;5073050;28;20097;-78
2022/11/13 09:26:49;;;;;;;6.72;2.45;;;20.00;99.90;;;;;;5073194;28;20105;-80
2022/11/13 09:29:15;;;;;;;4.07;2.00;;;19.80;99.90;;;;;;5072836;28;20429;-79
2022/11/13 09:31:43;;;;;;;6.57;2.13;;;20.00;99.90;;;;;;5071526;28;20044;-78
2022/11/13 09:34:09;;;;;;;8.93;2.38;;;20.20;99.90;;;;;;5073065;28;20025;-82
2022/11/13 09:36:36;;;;;;;5.18;2.20;;;20.40;99.90;;;;;;5073355;28;20136;-83
2022/11/13 09:39:05;;;;;;;4.35;2.00;;;20.10;99.90;;;;;;5072935;28;20040;-83
2022/11/13 09:41:48;;;;;;;7.15;2.72;;;19.90;99.90;;;;;;5073107;28;20028;-81
2022/11/13 09:44:30;;;;;;;4.13;2.20;;;20.30;99.90;;;;;;5072766;28;20024;-79
2022/11/13 09:47:18;;;;;;;3.72;2.35;;;20.80;99.90;;;;;;5072966;28;20114;-75
2022/11/13 09:49:50;;;;;;;3.63;1.70;;;21.10;99.90;;;;;;5072456;28;20457;-79
2022/11/13 09:52:36;;;;;;;4.13;1.90;;;20.90;99.90;;;;;;5071504;28;20131;-81
2022/11/13 09:55:03;;;;;;;5.05;1.95;;;21.10;99.90;;;;;;5071828;28;20025;-77
2022/11/13 09:57:40;;;;;;;10.77;6.72;;;21.20;99.90;;;;;;5071013;28;20103;-80
2022/11/13 10:00:20;;;;;;;9.45;5.20;;;21.50;99.90;;;;;;5069511;28;20219;-81
2022/11/13 10:03:23;;;;;;;6.68;3.30;;;21.80;99.90;;;;;;5090468;28;20042;-78
2022/11/13 10:05:56;;;;;;;5.60;2.38;;;22.10;99.90;;;;;;5089871;28;20028;-79
2022/11/13 10:08:56;;;;;;;4.20;2.08;;;22.40;99.90;;;;;;5091402;28;20081;-74
2022/11/13 10:11:37;;;;;;;3.40;1.80;;;22.50;99.90;;;;;;5089957;28;20486;-80
2022/11/13 10:14:09;;;;;;;4.40;2.22;;;22.60;99.90;;;;;;5091831;28;20020;-80
2022/11/13 10:16:40;;;;;;;8.23;2.47;;;22.30;99.90;;;;;;5089440;28;20032;-78
2022/11/13 10:19:29;;;;;;;5.20;2.40;;;21.50;99.90;;;;;;5075188;28;20075;-80
2022/11/13 10:22:04;;;;;;;4.63;2.50;;;21.20;99.90;;;;;;5041031;28;20032;-77
2022/11/13 10:24:42;;;;;;;7.88;2.55;;;21.30;99.90;;;;;;5085690;28;20047;-70
2022/11/13 10:27:10;;;;;;;4.93;2.90;;;21.10;99.90;;;;;;5095904;28;20023;-72
2022/11/13 10:29:37;;;;;;;5.70;2.60;;;20.80;99.90;;;;;;5102240;28;20502;-72
2022/11/13 10:32:21;;;;;;;;;;;20.80;99.90;;;;;;5102920;28;20455;-72
2022/11/13 10:35:08;;;;;;;4.72;2.13;;;21.20;99.90;;;;;;5069302;28;19916;-69
2022/11/13 10:38:02;;;;;;;5.65;1.95;;;21.60;99.90;;;;;;5072843;28;20103;-72
2022/11/13 10:40:32;;;;;;;4.78;2.30;;;22.00;99.90;;;;;;5082812;28;20024;-69
2022/11/13 10:43:17;;;;;;;4.53;2.28;;;22.30;99.90;;;;;;5079467;28;20063;-72
2022/11/13 10:45:54;;;;;;;5.07;2.38;;;22.40;99.90;;;;;;5080233;28;20066;-68
2022/11/13 10:48:31;;;;;;;5.15;2.40;;;22.30;99.90;;;;;;5080959;28;20111;-73
2022/11/13 10:51:04;;;;;;;4.50;2.10;;;22.30;99.90;;;;;;5090691;28;20499;-71
2022/11/13 10:53:50;;;;;;;5.25;2.33;;;21.90;99.90;;;;;;5088954;28;20147;-72
2022/11/13 10:56:25;;;;;;;8.13;2.90;;;21.70;99.90;;;;;;5090556;28;20032;-75
2022/11/13 10:59:14;;;;;;;6.22;2.80;;;21.40;99.90;;;;;;5090463;28;20028;-73
2022/11/13 11:01:46;;;;;;;5.47;2.42;;;21.30;99.90;;;;;;5090395;28;20372;-73
2022/11/13 11:04:29;;;;;;;5.18;2.20;;;21.40;99.90;;;;;;5090987;28;20028;-77
2022/11/13 11:07:03;;;;;;;7.95;2.15;;;21.30;99.90;;;;;;5090509;28;20035;-74
2022/11/13 11:09:37;;;;;;;7.43;1.80;;;21.40;99.90;;;;;;5090899;28;20028;-73
2022/11/13 11:12:17;;;;;;;3.70;1.95;;;21.40;99.90;;;;;;5090479;28;20104;-72
2022/11/13 11:14:55;;;;;;;5.13;2.38;;;21.50;99.90;;;;;;5090228;28;20020;-73
2022/11/13 11:17:31;;;;;;;3.22;1.90;;;21.40;99.90;;;;;;5087328;28;20028;-74
2022/11/13 11:20:16;;;;;;;4.43;1.77;;;21.20;99.90;;;;;;5090630;28;20100;-73
2022/11/13 11:22:44;;;;;;;5.15;1.88;;;21.20;99.90;;;;;;5089579;28;20444;-73
2022/11/13 11:25:39;;;;;;;4.53;2.05;;;21.10;99.90;;;;;;5093136;28;20044;-73
2022/11/13 11:28:44;;;;;;;4.68;2.10;;;21.10;99.90;;;;;;5094503;28;20034;-73
2022/11/13 11:31:25;;;;;;;4.70;1.90;;;21.10;99.90;;;;;;5093912;28;20062;-73
2022/11/13 11:34:38;;;;;;;7.38;2.22;;;21.10;99.90;;;;;;5094644;28;20264;-74
2022/11/13 11:37:24;;;;;;;9.18;2.20;;;21.00;99.90;;;;;;5094274;28;20024;-74
2022/11/13 11:40:01;;;;;;;;;;;20.70;99.90;;;;;;5094637;28;20028;-73
2022/11/13 11:42:36;;;;;;;3.38;1.67;;;20.70;99.90;;;;;;5094121;28;19912;-73
2022/11/13 11:45:25;;;;;;;3.33;1.75;;;20.60;99.90;;;;;;5094303;28;20499;-73
2022/11/13 11:47:53;;;;;;;3.42;1.88;;;20.50;99.90;;;;;;5092450;28;20089;-74
2022/11/13 11:50:41;;;;;;;4.40;1.90;;;20.60;99.90;;;;;;5093809;28;20081;-74
2022/11/13 11:53:45;;;;;;;5.63;2.03;;;20.60;99.90;;;;;;5094070;28;20048;-73
2022/11/13 11:56:14;;;;;;;4.35;1.90;;;20.60;99.90;;;;;;5094026;28;20024;-74
2022/11/13 11:58:57;;;;;;;4.78;1.98;;;20.70;99.90;;;;;;5093854;28;20361;-73
2022/11/13 12:01:50;;;;;;;3.53;2.00;;;20.70;99.90;;;;;;5092014;28;20024;-73
2022/11/13 12:04:25;;;;;;;4.43;2.10;;;20.80;99.90;;;;;;5093564;28;20020;-73
2022/11/13 12:07:06;;;;;;;4.07;2.20;;;20.80;99.90;;;;;;5093627;28;20024;-74
2022/11/13 12:09:40;;;;;;;5.53;2.33;;;21.00;99.90;;;;;;5093505;28;20143;-73
2022/11/13 12:12:18;;;;;;;6.60;2.30;;;21.10;99.90;;;;;;5093621;28;20040;-74
2022/11/13 12:15:12;;;;;;;5.95;2.33;;;21.10;99.90;;;;;;5091843;28;20024;-73
2022/11/13 12:17:57;;;;;;;4.40;2.28;;;21.20;99.90;;;;;;5093528;28;20031;-74
2022/11/13 12:21:14;;;;;;;4.53;2.53;;;21.20;99.90;;;;;;5093764;28;20155;-73
2022/11/13 12:24:05;;;;;;;6.43;2.85;;;21.20;99.90;;;;;;5050875;28;20591;-74
2022/11/13 12:26:55;;;;;;;4.47;2.38;;;21.30;99.90;;;;;;5050548;28;20040;-74
2022/11/13 12:29:39;;;;;;;4.28;2.15;;;21.40;99.90;;;;;;5050646;28;20036;-74
2022/11/13 12:32:56;;;;;;;5.53;2.05;;;21.40;99.90;;;;;;5051015;28;20123;-73
2022/11/13 12:35:25;;;;;;;4.57;2.10;;;21.20;99.90;;;;;;4951332;28;20074;-74
2022/11/13 12:38:34;;;;;;;2.70;1.55;;;21.10;99.90;;;;;;4952446;29;20043;-74
2022/11/13 12:41:34;;;;;;;2.90;1.58;;;21.00;99.90;;;;;;4935956;29;20051;-75
2022/11/13 12:44:20;;;;;;;3.38;1.88;;;21.00;99.90;;;;;;4952625;29;20039;-76
2022/11/13 12:46:48;;;;;;;4.88;2.30;;;20.60;99.90;;;;;;4952765;29;20031;-75
2022/11/13 12:49:31;;;;;;;3.92;2.25;;;20.50;99.90;;;;;;4952764;29;20062;-75
2022/11/13 12:52:29;;;;;;;5.00;2.13;;;20.50;99.90;;;;;;4952647;29;20039;-75
2022/11/13 12:55:27;;;;;;;4.88;2.08;;;20.50;99.90;;;;;;4979455;28;20138;-75
2022/11/13 12:57:55;;;;;;;3.28;2.10;;;20.40;99.90;;;;;;4991023;28;20026;-74
2022/11/13 13:00:26;;;;;;;4.13;1.85;;;20.30;99.90;;;;;;4991357;28;20066;-75
2022/11/13 13:03:37;;;;;;;2.85;1.45;;;20.30;99.90;;;;;;4991191;28;20495;-75
2022/11/13 13:06:19;;;;;;;4.00;1.65;;;20.30;99.90;;;;;;4951954;29;20039;-75
2022/11/13 13:09:15;;;;;;;2.75;1.50;;;20.20;99.90;;;;;;4977387;28;20040;-75
2022/11/13 13:12:17;;;;;;;3.67;1.80;;;20.30;99.90;;;;;;5049940;28;20048;-74
2022/11/13 13:15:29;;;;;;;3.35;1.60;;;20.30;99.90;;;;;;5049936;28;20025;-76
2022/11/13 13:18:18;;;;;;;4.38;1.73;;;20.20;99.90;;;;;;5013778;28;20071;-75
2022/11/13 13:21:05;;;;;;;3.22;1.77;;;20.10;99.90;;;;;;5039510;28;20120;-75